createdAt,value
2023-02-22T00:21:27.481Z,6.89
2023-02-22T00:49:52.998Z,7.25
2023-02-22T01:18:05.029Z,6.68
2023-02-22T01:46:31.765Z,6.24
2023-02-22T02:14:51.888Z,6.67
2023-02-22T02:43:10.680Z,6.3
2023-02-22T03:11:26.558Z,6.42
2023-02-22T03:39:49.881Z,6.58
2023-02-22T04:08:07.619Z,6.51
2023-02-22T04:36:23.703Z,6.62
2023-02-22T05:04:38.454Z,6.45
2023-02-22T05:32:58.535Z,6.03
2023-02-22T06:01:19.973Z,5.09
2023-02-22T06:29:36.675Z,4.73
2023-02-22T06:58:10.934Z,3.97
2023-02-22T07:26:38.859Z,5.62
2023-02-22T07:55:09.548Z,8.11
2023-02-22T08:23:36.300Z,7.81
2023-02-22T08:51:57.484Z,11.13
2023-02-22T09:20:11.189Z,11.2
2023-02-22T09:48:32.125Z,11.8
2023-02-22T10:17:22.321Z,14.11
2023-02-22T10:45:22.188Z,14.66
2023-02-22T11:13:57.344Z,14.9
2023-02-22T11:41:59.838Z,15.66
2023-02-22T12:10:45.441Z,14.31
2023-02-22T12:39:54.197Z,14.28
2023-02-22T13:08:09.683Z,14.58
2023-02-22T13:37:10.741Z,14.58
2023-02-22T14:06:13.765Z,14.5
2023-02-22T14:35:28.542Z,14.44
2023-02-22T15:04:05.889Z,14.6
2023-02-22T15:32:20.260Z,14.26
2023-02-22T16:01:20.171Z,14.04
2023-02-22T16:29:46.557Z,13.56
2023-02-22T16:58:36.917Z,13.02
2023-02-22T17:27:34.510Z,12.69
2023-02-22T17:56:39.120Z,12.42
2023-02-22T18:25:35.535Z,12.28
2023-02-22T18:54:34.569Z,11.9
2023-02-22T19:23:33.296Z,11.65
2023-02-22T19:51:50.506Z,11.56
2023-02-22T20:20:49.708Z,11.29
2023-02-22T20:49:42.873Z,11.1
2023-02-22T21:18:42.288Z,10.77
2023-02-22T21:47:03.498Z,10.67
2023-02-22T22:16:04.876Z,10.69
2023-02-22T22:45:03.268Z,10.64
2023-02-22T23:14:00.735Z,10.49
2023-02-22T23:43:06.629Z,10.54
